createdAt,value
2022-10-03T00:00:02.157Z,16.60
2022-10-03T00:02:28.814Z,16.46
2022-10-03T00:05:00.398Z,16.33
2022-10-03T00:07:40.504Z,16.33
2022-10-03T00:10:22.225Z,16.44
2022-10-03T00:12:54.955Z,16.23
2022-10-03T00:15:22.138Z,16.17
2022-10-03T00:18:10.663Z,16.31
2022-10-03T00:20:46.070Z,16.22
2022-10-03T00:23:15.866Z,16.24
2022-10-03T00:25:42.657Z,16.27
2022-10-03T00:28:09.314Z,16.28
2022-10-03T00:31:02.296Z,16.26
2022-10-03T00:33:28.918Z,16.25
2022-10-03T00:36:01.515Z,16.29
2022-10-03T00:38:31.336Z,15.58
2022-10-03T00:41:16.183Z,15.34
2022-10-03T00:43:43.826Z,15.64
2022-10-03T00:46:16.347Z,15.77
2022-10-03T00:48:52.474Z,15.42
2022-10-03T00:51:27.986Z,15.55
2022-10-03T00:54:00.815Z,15.53
2022-10-03T00:56:40.104Z,15.57
2022-10-03T00:59:06.823Z,15.76
2022-10-03T01:01:34.456Z,15.84
2022-10-03T01:04:01.106Z,15.70
2022-10-03T01:06:41.017Z,15.33
2022-10-03T01:09:07.618Z,15.64
2022-10-03T01:11:54.263Z,15.71
2022-10-03T01:14:33.350Z,15.65
2022-10-03T01:16:59.995Z,15.75
2022-10-03T01:19:48.276Z,15.70
2022-10-03T01:22:29.498Z,15.78
2022-10-03T01:24:59.754Z,15.80
2022-10-03T01:27:32.898Z,15.78
2022-10-03T01:30:21.556Z,15.83
2022-10-03T01:32:53.337Z,15.70
2022-10-03T01:35:38.095Z,15.50
2022-10-03T01:38:04.724Z,15.41
2022-10-03T01:40:34.264Z,15.36
2022-10-03T01:43:12.797Z,15.17
2022-10-03T01:45:48.014Z,15.31
2022-10-03T01:48:21.539Z,15.26
2022-10-03T01:50:50.917Z,15.14
2022-10-03T01:53:27.303Z,15.38
2022-10-03T01:56:00.466Z,15.38
2022-10-03T01:58:37.435Z,15.11
2022-10-03T02:01:23.273Z,14.94
2022-10-03T02:03:56.855Z,14.94
2022-10-03T02:06:53.842Z,14.84
2022-10-03T02:09:26.497Z,14.68
2022-10-03T02:12:02.306Z,14.62
2022-10-03T02:14:28.945Z,14.65
2022-10-03T02:16:59.975Z,14.53
2022-10-03T02:19:29.986Z,14.49
2022-10-03T02:21:58.175Z,14.46
2022-10-03T02:24:37.453Z,14.65
2022-10-03T02:27:22.991Z,14.45
2022-10-03T02:30:08.636Z,14.48
2022-10-03T02:33:01.362Z,14.62
2022-10-03T02:35:47.115Z,14.63
2022-10-03T02:38:17.757Z,14.49
2022-10-03T02:40:51.258Z,14.63
2022-10-03T02:43:36.555Z,14.82
2022-10-03T02:46:09.236Z,14.51
2022-10-03T02:48:38.897Z,14.36
2022-10-03T02:51:14.776Z,14.59
2022-10-03T02:53:42.148Z,14.44
2022-10-03T02:56:27.336Z,14.46
2022-10-03T02:59:02.983Z,14.32
2022-10-03T03:01:48.567Z,14.34
2022-10-03T03:04:33.815Z,14.34
2022-10-03T03:07:15.598Z,14.38
2022-10-03T03:10:00.947Z,14.41
2022-10-03T03:12:41.511Z,14.42
2022-10-03T03:15:27.106Z,14.46
2022-10-03T03:18:02.936Z,14.43
2022-10-03T03:20:40.465Z,14.36
2022-10-03T03:23:07.436Z,14.26
2022-10-03T03:25:52.946Z,14.52
2022-10-03T03:28:38.258Z,14.27
2022-10-03T03:31:05.610Z,14.56
2022-10-03T03:33:32.296Z,14.69
2022-10-03T03:36:06.387Z,14.46
2022-10-03T03:38:49.922Z,14.45
2022-10-03T03:41:42.187Z,14.31
2022-10-03T03:44:09.113Z,14.49
2022-10-03T03:46:54.555Z,14.46
2022-10-03T03:49:24.236Z,14.28
2022-10-03T03:52:29.495Z,14.37
2022-10-03T03:55:08.159Z,13.94
2022-10-03T03:57:37.335Z,13.62
2022-10-03T04:00:24.196Z,14.02
2022-10-03T04:03:03.181Z,13.80
2022-10-03T04:05:29.785Z,13.85
2022-10-03T04:07:56.375Z,14.12
2022-10-03T04:10:31.557Z,13.75
2022-10-03T04:13:01.426Z,13.83
2022-10-03T04:15:30.903Z,13.89
2022-10-03T04:18:28.309Z,13.97
2022-10-03T04:20:56.157Z,14.20
2022-10-03T04:23:44.477Z,14.07
2022-10-03T04:26:29.195Z,13.98
2022-10-03T04:29:08.936Z,13.94
2022-10-03T04:31:43.140Z,13.99
2022-10-03T04:34:28.535Z,13.82
2022-10-03T04:37:04.475Z,14.02
2022-10-03T04:39:49.934Z,14.06
2022-10-03T04:42:16.557Z,13.76
2022-10-03T04:45:08.065Z,13.84
2022-10-03T04:47:48.306Z,14.00
2022-10-03T04:50:21.298Z,13.86
2022-10-03T04:53:06.446Z,14.09
2022-10-03T04:56:10.175Z,14.27
2022-10-03T04:58:39.404Z,14.30
2022-10-03T05:01:15.456Z,14.29
2022-10-03T05:03:47.563Z,14.40
2022-10-03T05:06:20.627Z,14.18
2022-10-03T05:08:47.216Z,14.29
2022-10-03T05:11:33.776Z,14.27
2022-10-03T05:14:24.531Z,14.21
2022-10-03T05:17:07.188Z,14.05
2022-10-03T05:19:36.805Z,14.35
2022-10-03T05:22:08.557Z,14.05
2022-10-03T05:24:56.386Z,13.84
2022-10-03T05:27:36.099Z,13.95
2022-10-03T05:30:09.780Z,14.25
2022-10-03T05:33:07.690Z,14.42
2022-10-03T05:35:44.418Z,14.53
2022-10-03T05:38:11.056Z,14.38
2022-10-03T05:40:40.724Z,14.39
2022-10-03T05:43:16.458Z,14.62
2022-10-03T05:45:49.281Z,14.57
2022-10-03T05:48:31.321Z,16.07
2022-10-03T05:51:13.632Z,16.56
2022-10-03T05:53:57.935Z,18.15
2022-10-03T05:56:27.677Z,19.07
2022-10-03T05:59:33.107Z,20.41
2022-10-03T06:02:18.678Z,20.04
2022-10-03T06:04:48.458Z,20.50
2022-10-03T06:07:29.217Z,20.23
2022-10-03T06:10:11.723Z,20.31
2022-10-03T06:12:45.268Z,20.00
2022-10-03T06:17:58.379Z,21.05
2022-10-03T06:21:05.943Z,22.20
2022-10-03T06:23:52.453Z,21.66
2022-10-03T06:26:39.597Z,21.89
2022-10-03T06:29:25.309Z,22.05
2022-10-03T06:32:10.923Z,21.91
2022-10-03T06:34:56.276Z,21.95
2022-10-03T06:37:25.873Z,22.27
2022-10-03T06:40:16.501Z,23.07
2022-10-03T06:42:56.459Z,23.32
2022-10-03T06:45:41.107Z,23.40
2022-10-03T06:48:26.608Z,22.86
2022-10-03T06:51:12.234Z,22.14
2022-10-03T06:53:41.918Z,21.48
2022-10-03T06:56:22.106Z,21.64
2022-10-03T06:58:58.516Z,21.71
2022-10-03T07:01:44.341Z,22.22
2022-10-03T07:04:11.416Z,22.09
2022-10-03T07:06:41.237Z,22.47
2022-10-03T07:09:11.137Z,21.32
2022-10-03T07:11:56.596Z,20.99
2022-10-03T07:14:53.473Z,21.30
2022-10-03T07:17:34.038Z,21.50
2022-10-03T07:20:20.157Z,21.07
2022-10-03T07:22:48.159Z,21.85
2022-10-03T07:25:26.905Z,21.67
2022-10-03T07:27:56.673Z,21.10
2022-10-03T07:30:30.291Z,21.23
2022-10-03T07:33:15.767Z,20.52
2022-10-03T07:36:20.835Z,20.33
2022-10-03T07:38:59.479Z,20.41
2022-10-03T07:41:44.425Z,20.89
2022-10-03T07:44:30.598Z,20.97
2022-10-03T07:47:20.290Z,20.89
2022-10-03T07:49:48.574Z,21.06
2022-10-03T07:52:41.712Z,21.68
2022-10-03T07:55:27.250Z,22.53
2022-10-03T07:58:03.395Z,22.34
2022-10-03T08:00:42.216Z,21.68
2022-10-03T08:03:32.585Z,21.13
2022-10-03T08:06:08.508Z,20.05
2022-10-03T08:08:50.550Z,21.00
2022-10-03T08:11:22.115Z,20.88
2022-10-03T08:14:08.696Z,20.66
2022-10-03T08:16:50.848Z,21.01
2022-10-03T08:19:33.591Z,20.18
2022-10-03T08:22:12.304Z,20.52
2022-10-03T08:24:42.097Z,20.56
2022-10-03T08:27:21.226Z,20.89
2022-10-03T08:30:06.977Z,20.72
2022-10-03T08:32:36.813Z,20.32
2022-10-03T08:35:22.256Z,20.82
2022-10-03T08:37:51.786Z,20.22
2022-10-03T08:40:34.296Z,19.81
2022-10-03T08:43:03.755Z,20.31
2022-10-03T08:45:51.976Z,21.10
2022-10-03T08:48:21.725Z,21.45
2022-10-03T08:51:07.237Z,21.85
2022-10-03T08:53:51.709Z,21.92
2022-10-03T08:56:22.946Z,21.85
2022-10-03T08:59:05.517Z,22.02
2022-10-03T09:01:51.622Z,22.38
2022-10-03T09:04:40.196Z,22.66
2022-10-03T09:07:18.434Z,22.44
2022-10-03T09:10:01.136Z,23.10
2022-10-03T09:12:43.416Z,22.93
2022-10-03T09:15:28.994Z,23.47
2022-10-03T09:17:58.515Z,22.45
2022-10-03T09:20:51.377Z,22.86
2022-10-03T09:23:18.146Z,22.81
2022-10-03T09:25:47.739Z,23.13
2022-10-03T09:28:20.014Z,23.15
2022-10-03T09:30:52.159Z,23.11
2022-10-03T09:33:39.387Z,24.03
2022-10-03T09:36:21.314Z,23.27
2022-10-03T09:39:00.256Z,23.08
2022-10-03T09:41:45.539Z,23.36
2022-10-03T09:44:31.722Z,22.99
2022-10-03T09:47:23.035Z,23.19
2022-10-03T09:50:22.210Z,23.86
2022-10-03T09:52:51.870Z,23.23
2022-10-03T09:55:24.606Z,22.31
2022-10-03T09:57:54.806Z,22.65
2022-10-03T10:00:34.249Z,22.95
2022-10-03T10:03:04.237Z,22.67
2022-10-03T10:05:40.072Z,22.91
2022-10-03T10:08:30.265Z,23.38
2022-10-03T10:11:15.517Z,23.91
2022-10-03T10:14:07.749Z,22.82
2022-10-03T10:16:49.021Z,23.25
2022-10-03T10:19:22.077Z,23.15
2022-10-03T10:21:48.715Z,22.90
2022-10-03T10:24:27.867Z,22.98
2022-10-03T10:27:20.836Z,22.72
2022-10-03T10:29:59.046Z,23.31
2022-10-03T10:32:28.497Z,22.97
2022-10-03T10:35:15.483Z,22.09
2022-10-03T10:37:46.418Z,21.47
2022-10-03T10:40:33.635Z,21.67
2022-10-03T10:43:04.382Z,21.81
2022-10-03T10:45:49.725Z,22.03
2022-10-03T10:48:34.935Z,22.92
2022-10-03T10:51:20.333Z,23.07
2022-10-03T10:54:05.812Z,22.94
2022-10-03T10:56:35.337Z,23.50
2022-10-03T10:59:20.906Z,22.72
2022-10-03T11:01:59.725Z,22.17
2022-10-03T11:04:50.511Z,22.67
2022-10-03T11:07:23.136Z,21.84
2022-10-03T11:10:09.447Z,22.38
2022-10-03T11:12:56.578Z,22.08
2022-10-03T11:15:43.596Z,21.99
2022-10-03T11:18:10.258Z,21.93
2022-10-03T11:20:42.817Z,21.72
2022-10-03T11:23:28.291Z,22.07
2022-10-03T11:26:25.256Z,22.20
2022-10-03T11:29:04.456Z,21.76
2022-10-03T11:31:50.272Z,21.39
2022-10-03T11:34:23.673Z,21.59
2022-10-03T11:36:59.395Z,21.47
2022-10-03T11:39:38.146Z,21.34
2022-10-03T11:42:04.888Z,21.18
2022-10-03T11:44:37.105Z,20.54
2022-10-03T11:47:22.498Z,21.28
2022-10-03T11:50:00.176Z,21.40
2022-10-03T11:52:45.519Z,21.71
2022-10-03T11:55:21.527Z,21.07
2022-10-03T11:58:08.487Z,21.46
2022-10-03T12:00:37.446Z,21.10
2022-10-03T12:03:21.745Z,21.10
2022-10-03T12:05:48.576Z,21.66
2022-10-03T12:08:52.432Z,20.50
2022-10-03T12:11:19.697Z,20.81
2022-10-03T12:13:46.450Z,20.47
2022-10-03T12:16:22.274Z,20.17
2022-10-03T12:18:49.000Z,20.53
2022-10-03T12:21:23.427Z,20.42
2022-10-03T12:23:56.230Z,21.10
2022-10-03T12:26:31.240Z,21.42
2022-10-03T12:28:58.336Z,21.55
2022-10-03T12:31:41.967Z,20.61
2022-10-03T12:34:33.527Z,20.73
2022-10-03T12:37:17.945Z,20.98
2022-10-03T12:40:01.698Z,20.84
2022-10-03T12:42:47.147Z,21.42
2022-10-03T12:45:23.775Z,21.05
2022-10-03T12:47:56.326Z,20.83
2022-10-03T12:50:43.427Z,21.26
2022-10-03T12:53:13.212Z,22.12
2022-10-03T12:55:45.405Z,22.28
2022-10-03T12:58:33.297Z,21.72
2022-10-03T13:01:03.540Z,21.20
2022-10-03T13:03:33.545Z,21.72
2022-10-03T13:07:02.192Z,21.22
2022-10-03T13:09:34.114Z,21.22
2022-10-03T13:12:08.556Z,21.20
2022-10-03T13:14:44.913Z,21.22
2022-10-03T13:17:14.677Z,21.87
2022-10-03T13:19:51.635Z,22.02
2022-10-03T13:22:18.245Z,21.58
2022-10-03T13:24:57.977Z,21.32
2022-10-03T13:27:36.454Z,21.52
2022-10-03T13:30:14.026Z,22.36
2022-10-03T13:32:47.332Z,22.65
2022-10-03T13:35:35.821Z,22.35
2022-10-03T13:38:17.876Z,22.34
2022-10-03T13:40:56.707Z,22.64
2022-10-03T13:43:36.674Z,22.15
2022-10-03T13:46:13.133Z,22.06
2022-10-03T13:48:40.936Z,21.81
2022-10-03T13:51:22.670Z,21.92
2022-10-03T13:53:53.282Z,22.17
2022-10-03T13:56:24.656Z,22.30
2022-10-03T13:58:51.226Z,22.34
2022-10-03T14:01:18.858Z,21.67
2022-10-03T14:04:07.512Z,21.31
2022-10-03T14:06:43.287Z,21.78
2022-10-03T14:09:28.465Z,21.41
2022-10-03T14:12:07.917Z,21.40
2022-10-03T14:14:46.777Z,20.83
2022-10-03T14:17:32.415Z,20.12
2022-10-03T14:20:08.106Z,19.88
2022-10-03T14:22:39.244Z,19.62
2022-10-03T14:25:11.751Z,19.33
2022-10-03T14:27:49.493Z,18.99
2022-10-03T14:30:18.254Z,18.98
2022-10-03T14:33:00.159Z,19.46
2022-10-03T14:35:56.116Z,19.50
2022-10-03T14:38:51.784Z,19.38
2022-10-03T14:41:24.009Z,19.39
2022-10-03T14:44:00.112Z,19.34
2022-10-03T14:46:32.499Z,18.38
2022-10-03T14:49:04.009Z,19.05
2022-10-03T14:51:47.867Z,19.62
2022-10-03T14:54:17.594Z,19.07
2022-10-03T14:56:48.411Z,18.97
2022-10-03T14:59:35.136Z,19.39
2022-10-03T15:02:21.829Z,18.71
2022-10-03T15:04:49.356Z,18.47
2022-10-03T15:07:16.486Z,18.34
2022-10-03T15:09:47.095Z,18.48
2022-10-03T15:12:23.469Z,18.21
2022-10-03T15:15:06.065Z,18.42
2022-10-03T15:17:44.690Z,18.05
2022-10-03T15:20:12.776Z,17.99
2022-10-03T15:22:42.488Z,17.71
2022-10-03T15:25:14.231Z,17.79
2022-10-03T15:27:42.358Z,17.85
2022-10-03T15:30:19.044Z,17.78
2022-10-03T15:32:47.525Z,17.80
2022-10-03T15:35:25.304Z,17.74
2022-10-03T15:37:52.665Z,17.55
2022-10-03T15:40:39.734Z,17.89
2022-10-03T15:43:13.211Z,17.57
2022-10-03T15:45:41.131Z,17.74
2022-10-03T15:48:13.349Z,17.28
2022-10-03T15:50:43.875Z,17.27
2022-10-03T15:53:35.558Z,17.65
2022-10-03T15:56:03.565Z,17.70
2022-10-03T15:58:36.887Z,17.23
2022-10-03T16:01:17.019Z,17.09
2022-10-03T16:03:51.813Z,17.16
2022-10-03T16:06:21.647Z,17.21
2022-10-03T16:08:54.446Z,17.16
2022-10-03T16:11:23.785Z,16.92
2022-10-03T16:13:56.716Z,17.08
2022-10-03T16:16:42.071Z,16.87
2022-10-03T16:19:24.847Z,16.71
2022-10-03T16:21:52.120Z,16.74
2022-10-03T16:24:22.405Z,16.89
2022-10-03T16:26:54.808Z,16.43
2022-10-03T16:29:36.451Z,16.57
2022-10-03T16:32:06.819Z,16.94
2022-10-03T16:34:36.052Z,16.56
2022-10-03T16:37:04.541Z,16.52
2022-10-03T16:39:35.946Z,16.20
2022-10-03T16:42:20.466Z,16.98
2022-10-03T16:44:47.148Z,16.72
2022-10-03T16:47:14.186Z,17.29
2022-10-03T16:50:10.797Z,16.59
2022-10-03T16:52:38.716Z,16.19
2022-10-03T16:55:07.425Z,16.70
2022-10-03T16:57:44.536Z,16.90
2022-10-03T17:00:16.269Z,16.84
2022-10-03T17:02:43.416Z,16.80
2022-10-03T17:05:13.020Z,16.98
2022-10-03T17:07:51.027Z,16.04
2022-10-03T17:10:23.472Z,16.33
2022-10-03T17:12:53.381Z,16.21
2022-10-03T17:15:22.366Z,16.49
2022-10-03T17:18:03.137Z,16.34
2022-10-03T17:20:54.447Z,15.74
2022-10-03T17:23:21.125Z,16.37
2022-10-03T17:26:00.151Z,16.53
2022-10-03T17:28:32.976Z,16.40
2022-10-03T17:31:02.512Z,16.20
2022-10-03T17:33:35.164Z,16.10
2022-10-03T17:36:20.204Z,16.28
2022-10-03T17:38:50.432Z,16.18
2022-10-03T17:41:40.434Z,16.33
2022-10-03T17:44:13.844Z,15.85
2022-10-03T17:46:45.888Z,15.97
2022-10-03T17:49:12.633Z,16.29
2022-10-03T17:51:41.488Z,16.31
2022-10-03T17:54:39.352Z,16.46
2022-10-03T17:57:21.466Z,16.65
2022-10-03T17:59:55.188Z,16.22
2022-10-03T18:02:44.979Z,16.56
2022-10-03T18:05:19.928Z,16.54
2022-10-03T18:07:49.236Z,16.21
2022-10-03T18:10:21.209Z,16.16
2022-10-03T18:12:52.551Z,15.99
2022-10-03T18:15:28.522Z,16.35
2022-10-03T18:18:04.603Z,16.52
2022-10-03T18:20:34.807Z,16.46
2022-10-03T18:23:08.885Z,16.11
2022-10-03T18:26:19.536Z,15.23
2022-10-03T18:28:56.336Z,15.65
2022-10-03T18:31:24.501Z,15.83
2022-10-03T18:33:51.455Z,16.19
2022-10-03T18:36:27.156Z,15.93
2022-10-03T18:38:57.887Z,15.60
2022-10-03T18:41:25.530Z,16.10
2022-10-03T18:43:58.997Z,16.10
2022-10-03T18:46:30.654Z,15.62
2022-10-03T18:49:30.100Z,16.05
2022-10-03T18:52:00.609Z,15.59
2022-10-03T18:54:35.920Z,15.72
2022-10-03T18:57:10.165Z,16.19
2022-10-03T18:59:36.963Z,16.30
2022-10-03T19:02:06.058Z,16.11
2022-10-03T19:04:39.115Z,15.95
2022-10-03T19:07:17.246Z,15.79
2022-10-03T19:10:03.077Z,15.77
2022-10-03T19:12:33.858Z,15.39
2022-10-03T19:15:00.586Z,15.41
2022-10-03T19:17:32.396Z,15.34
2022-10-03T19:20:19.405Z,15.47
2022-10-03T19:22:59.994Z,15.81
2022-10-03T19:25:27.682Z,15.86
2022-10-03T19:28:15.735Z,15.79
2022-10-03T19:30:43.376Z,15.24
2022-10-03T19:33:17.516Z,15.48
2022-10-03T19:35:47.814Z,15.42
2022-10-03T19:38:17.615Z,15.59
2022-10-03T19:41:03.065Z,15.58
2022-10-03T19:43:40.285Z,15.64
2022-10-03T19:46:11.849Z,15.68
2022-10-03T19:48:44.246Z,15.36
2022-10-03T19:51:20.549Z,15.13
2022-10-03T19:53:51.149Z,15.29
2022-10-03T19:56:18.858Z,15.28
2022-10-03T19:58:47.173Z,15.47
2022-10-03T20:01:14.295Z,15.45
2022-10-03T20:03:47.435Z,15.19
2022-10-03T20:06:25.848Z,15.25
2022-10-03T20:08:52.483Z,15.60
2022-10-03T20:11:22.294Z,15.48
2022-10-03T20:13:49.661Z,15.58
2022-10-03T20:16:18.308Z,15.41
2022-10-03T20:18:47.316Z,15.51
2022-10-03T20:21:17.601Z,15.85
2022-10-03T20:23:44.882Z,15.78
2022-10-03T20:26:26.797Z,15.84
2022-10-03T20:28:59.436Z,15.79
2022-10-03T20:31:28.577Z,15.88
2022-10-03T20:33:57.675Z,15.37
2022-10-03T20:36:29.568Z,15.64
2022-10-03T20:39:02.519Z,15.67
2022-10-03T20:41:41.838Z,15.22
2022-10-03T20:44:28.515Z,15.13
2022-10-03T20:47:03.168Z,15.13
2022-10-03T20:49:32.567Z,14.90
2022-10-03T20:52:04.931Z,14.96
2022-10-03T20:54:48.255Z,15.17
2022-10-03T20:57:14.928Z,15.25
2022-10-03T20:59:46.871Z,15.28
2022-10-03T21:02:16.696Z,14.53
2022-10-03T21:05:04.826Z,14.61
2022-10-03T21:07:31.486Z,14.54
2022-10-03T21:10:18.340Z,13.65
2022-10-03T21:12:47.986Z,14.47
2022-10-03T21:15:30.102Z,14.40
2022-10-03T21:17:57.497Z,14.68
2022-10-03T21:20:27.695Z,14.84
2022-10-03T21:22:56.053Z,14.63
2022-10-03T21:25:29.227Z,14.63
2022-10-03T21:27:57.444Z,14.83
2022-10-03T21:30:45.652Z,14.79
2022-10-03T21:33:18.337Z,14.90
2022-10-03T21:35:45.168Z,14.90
2022-10-03T21:38:17.307Z,14.91
2022-10-03T21:40:55.733Z,14.72
2022-10-03T21:43:28.097Z,15.04
2022-10-03T21:46:11.323Z,15.27
2022-10-03T21:48:45.727Z,15.17
2022-10-03T21:51:32.614Z,14.71
2022-10-03T21:54:05.164Z,15.33
2022-10-03T21:56:44.086Z,14.78
2022-10-03T21:59:18.855Z,14.53
2022-10-03T22:02:08.847Z,14.81
2022-10-03T22:04:35.606Z,14.97
2022-10-03T22:07:16.386Z,15.07
2022-10-03T22:09:50.406Z,15.11
2022-10-03T22:12:18.073Z,15.09
2022-10-03T22:14:49.207Z,14.87
2022-10-03T22:17:16.436Z,15.05
2022-10-03T22:19:46.119Z,15.11
2022-10-03T22:22:20.418Z,15.05
2022-10-03T22:24:52.819Z,14.89
2022-10-03T22:27:38.013Z,14.36
2022-10-03T22:30:09.287Z,14.52
2022-10-03T22:32:44.580Z,14.53
2022-10-03T22:35:33.065Z,13.69
2022-10-03T22:38:00.255Z,14.29
2022-10-03T22:40:28.694Z,14.06
2022-10-03T22:42:57.386Z,14.27
2022-10-03T22:45:25.492Z,14.45
2022-10-03T22:47:54.425Z,14.18
2022-10-03T22:50:25.191Z,14.40
2022-10-03T22:52:52.334Z,14.46
2022-10-03T22:55:22.737Z,14.78
2022-10-03T22:57:51.005Z,14.55
2022-10-03T23:00:22.108Z,14.68
2022-10-03T23:02:53.127Z,14.29
2022-10-03T23:05:38.945Z,14.16
2022-10-03T23:08:32.809Z,14.17
2022-10-03T23:11:01.488Z,14.27
2022-10-03T23:13:36.989Z,14.52
2022-10-03T23:16:12.770Z,13.22
2022-10-03T23:18:59.662Z,14.32
2022-10-03T23:21:26.817Z,14.38
2022-10-03T23:23:58.726Z,14.22
2022-10-03T23:26:28.454Z,14.16
2022-10-03T23:29:04.337Z,14.17
2022-10-03T23:31:49.658Z,14.47
2022-10-03T23:34:34.531Z,14.31
2022-10-03T23:37:04.989Z,14.53
2022-10-03T23:39:33.176Z,13.95
2022-10-03T23:42:01.173Z,14.21
2022-10-03T23:44:48.276Z,14.70
2022-10-03T23:47:17.305Z,14.62
2022-10-03T23:49:45.387Z,14.70
2022-10-03T23:52:32.865Z,14.57
2022-10-03T23:55:02.769Z,14.51
2022-10-03T23:57:37.867Z,14.57
